Time;durP1;ratioP1;P1;durP2;ratioP2;P2;SDS_P1;SDS_P2;PMS_P1;PMS_P2;Temp;Humidity;BMP_temperature;BMP_pressure;BME280_temperature;BME280_humidity;BME280_pressure;Samples;Min_cycle;Max_cycle;Signal;HPM_P1;HPM_P2
2024/02/04 00:02:38;;;;;;;;;;;;;;;;;;;;;
2024/02/04 00:06:51;;;;;;;1.70;1.00;;;;;;;8.30;94.40;100249.26;127277;1288;115567;-68
2024/02/04 00:10:26;;;;;;;;;;;;;;;;;;;;;
2024/02/04 00:14:17;;;;;;;1.60;0.60;;;;;;;8.22;94.31;100251.52;126226;1298;129685;-68
2024/02/04 00:18:07;;;;;;;1.80;1.70;;;;;;;8.19;94.18;100254.65;126300;1313;114951;-68
2024/02/04 00:21:58;;;;;;;;;;;;;;;;;;;;;
2024/02/04 00:25:19;;;;;;;;;;;;;;;8.12;93.78;100250.34;125231;1309;116533;-68
2024/02/04 00:29:11;;;;;;;1.50;0.70;;;;;;;8.08;93.98;100256.00;125539;1306;114813;-69
2024/02/04 00:33:12;;;;;;;;;;;;;;;;;;;;;
2024/02/04 00:37:15;;;;;;;1.80;0.40;;;;;;;8.00;93.84;100259.70;125523;1301;115232;-67
2024/02/04 00:45:42;;;;;;;1.20;0.80;;;;;;;7.95;93.74;100252.77;126420;1298;638363;-67
2024/02/04 00:49:11;;;;;;;1.30;0.60;;;;;;;7.89;93.75;100251.91;127674;1286;128599;-69
2024/02/04 00:53:04;;;;;;;1.60;0.50;;;;;;;7.88;93.63;100254.45;127240;1293;115119;-68
2024/02/04 00:57:31;;;;;;;1.80;0.90;;;;;;;7.86;93.77;100253.27;127048;1288;114916;-68
2024/02/04 01:01:07;;;;;;;1.50;0.50;;;;;;;7.83;93.30;100249.88;122549;1293;114742;-68
2024/02/04 01:05:09;;;;;;;1.10;0.80;;;;;;;7.76;93.18;100250.30;126038;1301;115041;-68
2024/02/04 01:08:34;;;;;;;1.60;0.50;;;;;;;7.67;93.17;100256.71;125207;1326;115019;-68
2024/02/04 01:12:34;;;;;;;3.00;0.80;;;;;;;7.60;93.08;100259.80;125078;1307;128767;-66
2024/02/04 01:15:54;;;;;;;2.50;0.60;;;;;;;7.51;93.22;100266.70;124423;1308;114983;-68
2024/02/04 01:19:44;;;;;;;1.50;1.20;;;;;;;7.45;93.10;100266.05;124990;1314;114916;-67
2024/02/04 01:23:45;;;;;;;1.40;0.40;;;;;;;7.36;93.10;100264.08;124884;1311;114991;-67
2024/02/04 01:27:26;;;;;;;3.10;0.90;;;;;;;7.25;92.98;100266.77;125170;1307;114961;-67
2024/02/04 01:35:20;;;;;;;;;;;;;;;;;;;;;
2024/02/04 01:38:52;;;;;;;;;;;;;;;;;;;;;
2024/02/04 01:42:53;;;;;;;2.60;1.10;;;;;;;6.88;93.04;100257.61;126041;1298;114938;-67
2024/02/04 01:46:37;;;;;;;1.70;0.60;;;;;;;6.81;93.40;100245.77;126078;1293;114904;-68
2024/02/04 01:54:56;;;;;;;2.50;0.90;;;;;;;6.70;93.53;100254.14;126044;1302;114899;-67
2024/02/04 01:58:57;;;;;;;4.10;1.30;;;;;;;6.68;93.91;100237.53;126053;1319;114938;-67
2024/02/04 02:02:58;;;;;;;3.40;1.20;;;;;;;6.69;94.23;100226.15;125525;1308;114881;-71
2024/02/04 02:11:01;;;;;;;2.10;1.10;;;;;;;6.78;94.65;100224.95;124328;1310;130303;-67
2024/02/04 02:15:03;;;;;;;3.00;1.20;;;;;;;6.83;94.76;100237.91;124163;1315;115041;-69
2024/02/04 02:19:06;;;;;;;2.40;1.20;;;;;;;6.90;95.09;100251.33;123502;1321;114817;-67
2024/02/04 02:23:16;;;;;;;2.80;1.40;;;;;;;6.96;95.12;100258.90;123653;1322;115009;-67
2024/02/04 02:27:16;;;;;;;2.80;1.90;;;;;;;7.04;95.34;100257.74;123782;1336;114906;-67
2024/02/04 02:39:57;;;;;;;3.60;1.60;;;;;;;7.28;95.65;100212.30;126286;1296;642340;-67
2024/02/04 02:43:33;;;;;;;;;;;;;;;7.33;95.33;100207.85;129392;1289;128556;-68
2024/02/04 02:47:38;;;;;;;4.40;1.70;;;;;;;7.37;95.73;100220.30;129337;1270;114762;-67
2024/02/04 02:51:40;;;;;;;3.00;1.20;;;;;;;7.41;95.81;100223.19;125000;1290;5406602;-68
2024/02/04 02:55:46;;;;;;;2.20;1.30;;;;;;;7.44;95.88;100226.09;127443;1287;114850;-66
2024/02/04 02:59:45;;;;;;;2.40;1.20;;;;;;;7.47;95.88;100227.95;126654;1312;114947;-66
2024/02/04 03:03:39;;;;;;;4.60;1.60;;;;;;;7.50;95.64;100208.30;125276;1302;115420;-67
2024/02/04 03:16:09;;;;;;;3.10;1.60;;;;;;;7.28;94.07;100207.86;128883;1273;126753;-67
2024/02/04 03:24:20;;;;;;;1.90;1.20;;;;;;;7.01;93.82;100215.61;124201;1283;5415274;-68
2024/02/04 03:28:21;;;;;;;2.60;1.40;;;;;;;6.89;93.60;100219.20;126156;1302;114978;-66
2024/02/04 03:32:22;;;;;;;2.50;1.00;;;;;;;6.82;93.86;100218.75;126121;1299;115005;-67
2024/02/04 03:36:23;;;;;;;1.50;0.70;;;;;;;6.73;93.57;100216.07;125680;1309;115054;-67
2024/02/04 03:40:17;;;;;;;;;;;;;;;;;;;;;
2024/02/04 03:48:47;;;;;;;1.40;0.80;;;;;;;6.44;93.09;100228.40;126297;1297;637449;-66
2024/02/04 03:56:52;;;;;;;2.00;1.20;;;;;;;6.21;93.19;100238.73;127906;1302;114964;-66
2024/02/04 04:00:59;;;;;;;1.00;0.50;;;;;;;6.12;93.01;100255.70;122627;1295;5435177;-66
2024/02/04 04:05:00;;;;;;;3.40;1.00;;;;;;;6.02;93.02;100256.70;125801;1301;114952;-66
2024/02/04 04:13:27;;;;;;;4.80;1.00;;;;;;;5.93;92.98;100265.12;126697;1294;636311;-66
2024/02/04 04:21:37;;;;;;;2.20;0.80;;;;;;;5.81;92.63;100276.98;126655;1296;114936;-67
2024/02/04 04:25:37;;;;;;;2.50;0.50;;;;;;;5.76;92.50;100287.23;121781;1305;5419733;-66
2024/02/04 04:33:57;;;;;;;;;;;;;;;;;;;;;
2024/02/04 04:38:01;;;;;;;3.10;1.50;;;;;;;5.76;92.44;100278.56;128602;1287;128837;-66
2024/02/04 05:02:40;;;;;;;5.40;1.20;;;;;;;5.78;91.37;100279.92;128841;1274;129066;-66
2024/02/04 05:06:42;;;;;;;3.40;0.80;;;;;;;5.68;91.25;100277.73;127951;1301;114939;-67
2024/02/04 05:10:49;;;;;;;4.60;0.90;;;;;;;5.59;91.47;100272.34;123402;1307;5408122;-67
2024/02/04 05:14:51;;;;;;;5.90;1.20;;;;;;;5.51;91.40;100271.88;126081;1302;116805;-66
2024/02/04 05:18:53;;;;;;;3.80;1.20;;;;;;;5.41;91.36;100273.38;125606;1302;115084;-66
2024/02/04 05:22:55;;;;;;;3.00;1.00;;;;;;;5.32;91.44;100276.48;124936;1309;129872;-65
2024/02/04 05:39:34;;;;;;;8.60;1.30;;;;;;;5.09;91.68;100293.73;126962;1293;115006;-67
2024/02/04 05:43:35;;;;;;;4.70;0.90;;;;;;;5.07;91.85;100291.31;122295;1298;5417017;-65
2024/02/04 06:00:10;;;;;;;4.80;0.80;;;;;;;4.98;91.64;100293.32;128625;1277;126882;-66
2024/02/04 06:04:11;;;;;;;4.40;1.00;;;;;;;4.93;91.60;100292.05;127492;1289;114943;-65
2024/02/04 06:08:18;;;;;;;3.80;1.20;;;;;;;4.90;91.55;100299.91;123405;1308;5406237;-65
2024/02/04 06:12:18;;;;;;;4.70;1.00;;;;;;;4.85;91.80;100299.33;126149;1303;114868;-65
2024/02/04 06:16:19;;;;;;;2.30;0.80;;;;;;;4.81;91.72;100304.55;126108;1299;114986;-66
2024/02/04 06:20:20;;;;;;;4.90;2.20;;;;;;;4.78;91.84;100298.97;125598;1303;129667;-66
2024/02/04 06:24:22;;;;;;;8.60;1.10;;;;;;;4.76;91.74;100292.83;125161;1309;114882;-65
2024/02/04 06:40:54;;;;;;;6.60;1.40;;;;;;;4.66;91.98;100289.72;127854;1281;114887;-65
2024/02/04 06:44:56;;;;;;;3.20;1.20;;;;;;;4.66;91.97;100297.69;122915;1292;5414833;-65
2024/02/04 06:48:58;;;;;;;4.30;0.90;;;;;;;4.68;92.21;100303.14;125867;1301;114936;-65
2024/02/04 06:52:59;;;;;;;4.60;1.20;;;;;;;4.70;92.30;100301.46;125243;1324;114978;-65
2024/02/04 07:01:20;;;;;;;4.20;1.40;;;;;;;4.84;92.50;100291.03;126632;1295;636536;-65
2024/02/04 07:05:15;;;;;;;;;;;;;;;;;;;;;
2024/02/04 07:09:19;;;;;;;4.70;1.20;;;;;;;4.93;92.21;100287.45;127696;1295;114736;-65
2024/02/04 07:13:12;;;;;;;;;;;;;;;;;;;;;
2024/02/04 07:17:14;;;;;;;5.90;1.40;;;;;;;5.00;91.88;100284.08;124881;1313;114884;-66
2024/02/04 07:25:38;;;;;;;;;;;;;;;;;;;;;
2024/02/04 07:33:49;;;;;;;5.80;1.00;;;;;;;5.16;91.45;100264.88;127485;1287;114976;-66
2024/02/04 07:37:56;;;;;;;1.60;0.60;;;;;;;5.25;91.53;100263.75;122703;1293;5419331;-65
2024/02/04 07:45:47;;;;;;;;;;;;;;;;;;;;;
2024/02/04 07:54:24;;;;;;;3.80;1.00;;;;;;;6.12;91.38;100261.90;125803;1301;640456;-66
2024/02/04 08:02:29;;;;;;;3.80;1.50;;;;;;;6.56;90.64;100248.94;127786;1287;114875;-66
2024/02/04 08:06:34;;;;;;;3.00;0.90;;;;;;;6.74;90.62;100254.73;122741;1295;5401125;-65
2024/02/04 08:10:21;;;;;;;;;;;;;;;;;;;;;
2024/02/04 08:14:21;;;;;;;;;;;;;;;;;;;;;
2024/02/04 08:18:17;;;;;;;3.80;1.70;;;;;;;7.54;89.41;100253.80;123932;1319;129756;-65
2024/02/04 08:26:38;;;;;;;3.90;1.20;;;;;;;8.08;88.29;100242.82;126596;1292;635140;-66
2024/02/04 08:30:43;;;;;;;3.20;1.10;;;;;;;8.25;87.89;100240.52;129339;1273;128633;-65
2024/02/04 08:34:46;;;;;;;6.00;1.20;;;;;;;8.39;87.32;100240.33;128031;1278;114878;-66
2024/02/04 08:42:49;;;;;;;2.30;1.10;;;;;;;8.69;86.19;100238.61;126296;1295;114957;-66
2024/02/04 08:50:54;;;;;;;6.10;0.90;;;;;;;8.85;84.95;100238.77;124401;1313;128387;-63
2024/02/04 09:03:29;;;;;;;4.20;0.90;;;;;;;9.08;83.24;100240.98;127125;1287;129368;-62
2024/02/04 09:19:46;;;;;;;4.60;1.70;;;;;;;9.53;81.06;100200.98;124592;1326;115198;-63
2024/02/04 09:32:22;;;;;;;2.40;0.90;;;;;;;9.67;79.87;100196.96;125378;1304;639206;-63
2024/02/04 09:36:24;;;;;;;4.10;0.90;;;;;;;9.76;79.89;100186.71;126603;1302;129067;-61
2024/02/04 09:48:35;;;;;;;2.50;0.90;;;;;;;10.08;78.38;100189.45;124410;1312;114968;-64
2024/02/04 09:52:36;;;;;;;5.60;1.20;;;;;;;10.07;77.65;100193.24;123843;1314;116668;-62
2024/02/04 10:01:11;;;;;;;4.00;1.20;;;;;;;9.97;77.30;100182.48;125393;1300;638741;-64
2024/02/04 10:05:13;;;;;;;5.70;1.00;;;;;;;9.97;77.17;100170.73;126897;1286;128513;-60
2024/02/04 10:08:59;;;;;;;6.10;1.80;;;;;;;10.07;77.38;100159.55;126205;1290;114945;-60
2024/02/04 10:12:43;;;;;;;3.80;1.30;;;;;;;10.11;76.85;100153.95;122196;1310;5426147;-61
2024/02/04 10:16:52;;;;;;;4.10;2.30;;;;;;;10.13;76.97;100152.43;126194;1287;116489;-63
2024/02/04 10:20:55;;;;;;;3.80;2.00;;;;;;;10.15;76.62;100150.36;126195;1292;114846;-62
2024/02/04 10:24:54;;;;;;;;;;;;;;;;;;;;;
2024/02/04 10:28:40;;;;;;;6.20;2.00;;;;;;;10.19;76.77;100149.81;129427;1304;130013;-61
2024/02/04 10:32:42;;;;;;;7.40;3.50;;;;;;;10.16;76.41;100146.74;128851;1309;112984;-62
2024/02/04 10:36:43;;;;;;;10.80;3.80;;;;;;;10.15;76.50;100130.40;127979;1318;112809;-61
2024/02/04 10:40:46;;;;;;;15.10;4.70;;;;;;;10.15;76.44;100121.63;122652;1340;114992;-62
2024/02/04 10:44:49;;;;;;;4.70;1.60;;;;;;;10.18;76.33;100123.27;123397;1318;114970;-62
2024/02/04 10:53:11;;;;;;;6.40;2.30;;;;;;;10.31;76.32;100113.33;126334;1295;635305;-62
2024/02/04 10:57:18;;;;;;;7.70;2.90;;;;;;;10.38;76.55;100103.91;128445;1295;126833;-64
2024/02/04 11:01:18;;;;;;;6.30;2.00;;;;;;;10.50;76.39;100095.95;127584;1284;114742;-62
2024/02/04 11:05:20;;;;;;;4.30;1.40;;;;;;;10.65;76.60;100090.18;123455;1284;5496494;-62
2024/02/04 11:08:40;;;;;;;5.10;1.50;;;;;;;10.78;76.43;100090.94;125703;1318;114859;-62
2024/02/04 11:12:44;;;;;;;3.50;1.50;;;;;;;10.78;76.05;100068.38;125866;1318;114910;-62
2024/02/04 11:16:46;;;;;;;7.00;3.50;;;;;;;10.79;76.05;100081.75;124777;1327;115250;-62
2024/02/04 11:25:11;;;;;;;4.40;2.60;;;;;;;10.79;76.52;100040.49;123770;1317;114979;-66
2024/02/04 11:29:11;;;;;;;6.10;1.80;;;;;;;10.86;76.35;100029.19;123770;1334;115383;-65
2024/02/04 11:33:12;;;;;;;5.80;1.90;;;;;;;10.90;76.61;100030.23;123464;1333;114997;-62
2024/02/04 11:41:28;;;;;;;;;;;;;;;;;;;;;
2024/02/04 11:45:33;;;;;;;6.80;3.30;;;;;;;11.08;76.16;100034.29;127967;1281;128909;-67
2024/02/04 11:48:36;;;;;;;5.00;2.70;;;;;;;11.00;76.23;100037.58;127455;1303;114977;-66
2024/02/04 11:51:50;;;;;;;4.90;3.00;;;;;;;10.97;76.24;100033.98;127330;1304;114867;-65
2024/02/04 11:55:01;;;;;;;10.80;7.00;;;;;;;10.95;76.37;100022.63;127354;1283;291181;-65
2024/02/04 11:58:12;;;;;;;7.00;4.20;;;;;;;10.97;76.71;100008.98;127583;1283;114944;-64
2024/02/04 12:01:31;;;;;;;5.20;3.00;;;;;;;11.04;76.64;99997.30;127487;1281;128375;-63
2024/02/04 12:04:48;;;;;;;3.60;3.20;;;;;;;11.15;77.19;99990.27;127547;1281;114915;-66
2024/02/04 12:07:51;;;;;;;4.90;2.30;;;;;;;11.22;76.98;99987.02;127565;1284;114769;-64
2024/02/04 12:10:54;;;;;;;8.10;3.50;;;;;;;11.24;76.64;99983.09;127612;1302;114951;-66
2024/02/04 12:13:58;;;;;;;3.70;2.70;;;;;;;11.29;76.99;99975.34;127645;1296;114788;-66
2024/02/04 12:17:27;;;;;;;3.80;2.40;;;;;;;11.33;77.03;99972.08;127750;1302;114867;-66
2024/02/04 12:20:51;;;;;;;3.70;2.30;;;;;;;11.38;76.65;99960.33;127621;1294;114880;-66
2024/02/04 12:23:54;;;;;;;4.70;3.10;;;;;;;11.42;76.68;99943.66;128522;1272;114914;-63
2024/02/04 12:27:00;;;;;;;5.90;2.40;;;;;;;11.47;76.81;99935.52;129222;1269;114785;-66
2024/02/04 12:30:46;;;;;;;;;;;;;;;;;;;;;
2024/02/04 12:34:19;;;;;;;;;;;;;;;;;;;;;
2024/02/04 12:38:15;;;;;;;5.00;2.50;;;;;;;11.54;76.16;99920.95;129272;1286;115120;-67
2024/02/04 12:41:17;;;;;;;2.90;2.00;;;;;;;11.51;75.76;99905.56;129379;1263;114826;-65
2024/02/04 12:44:51;;;;;;;;;;;;;;;;;;;;;
2024/02/04 12:48:18;;;;;;;3.00;2.00;;;;;;;11.45;75.56;99900.92;129342;1269;115005;-62
2024/02/04 12:51:38;;;;;;;2.50;1.50;;;;;;;11.40;75.69;99889.95;129405;1285;129111;-63
2024/02/04 12:54:54;;;;;;;3.00;1.70;;;;;;;11.34;75.67;99883.55;129245;1285;114866;-61
2024/02/04 12:59:07;;;;;;;3.40;2.00;;;;;;;11.33;75.85;99871.80;129255;1263;114972;-61
2024/02/04 13:02:35;;;;;;;3.10;2.20;;;;;;;11.36;75.70;99877.66;128002;1280;114801;-63
2024/02/04 13:06:11;;;;;;;3.10;1.90;;;;;;;11.41;75.81;99869.70;127985;1278;114952;-62
2024/02/04 13:09:25;;;;;;;3.00;1.80;;;;;;;11.45;75.55;99867.64;127942;1278;128559;-61
2024/02/04 13:12:57;;;;;;;2.60;1.40;;;;;;;11.48;75.64;99863.19;128130;1296;114865;-62
2024/02/04 13:16:12;;;;;;;9.40;4.10;;;;;;;11.51;75.84;99858.90;128969;1289;114807;-62
2024/02/04 13:19:14;;;;;;;39.40;14.50;;;;;;;11.50;75.25;99854.48;128781;1269;115789;-64
2024/02/04 13:22:19;;;;;;;16.60;7.00;;;;;;;11.52;75.48;99849.69;128948;1284;115286;-61
2024/02/04 13:25:56;;;;;;;8.20;4.70;;;;;;;11.56;75.32;99854.32;128982;1268;129253;-65
2024/02/04 13:29:18;;;;;;;3.90;1.90;;;;;;;11.55;75.36;99853.27;128975;1289;114910;-63
2024/02/04 13:32:21;;;;;;;5.40;2.90;;;;;;;11.56;75.37;99850.19;129048;1267;114768;-62
2024/02/04 13:35:35;;;;;;;4.80;2.90;;;;;;;11.55;75.09;99846.27;129032;1269;114822;-67
2024/02/04 13:38:40;;;;;;;5.80;3.50;;;;;;;11.55;75.26;99851.30;129127;1264;114923;-63
2024/02/04 13:41:52;;;;;;;4.20;2.60;;;;;;;11.55;75.18;99853.13;129977;1266;128844;-64
2024/02/04 13:45:57;;;;;;;4.30;2.20;;;;;;;11.54;74.87;99849.42;130051;1274;114729;-65
2024/02/04 13:49:51;;;;;;;;;;;;;;;;;;;;;
2024/02/04 13:57:44;;;;;;;;;;;;;;;;;;;;;
2024/02/04 14:01:20;;;;;;;3.10;1.60;;;;;;;11.19;74.81;99843.29;126448;1308;128077;-65
2024/02/04 14:05:16;;;;;;;2.40;1.50;;;;;;;11.08;75.60;99843.23;125868;1297;114960;-63
2024/02/04 14:17:18;;;;;;;;;;;;;;;;;;;;;
2024/02/04 14:21:21;;;;;;;2.00;1.20;;;;;;;10.51;77.49;99862.20;128467;1278;114844;-63
2024/02/04 14:24:59;;;;;;;;;;;;;;;;;;;;;
2024/02/04 14:28:41;;;;;;;2.10;1.00;;;;;;;10.23;78.16;99868.74;127757;1281;114908;-60
2024/02/04 14:32:45;;;;;;;1.60;1.00;;;;;;;10.14;78.76;99855.98;127689;1299;114892;-61
2024/02/04 14:36:15;;;;;;;3.60;1.20;;;;;;;10.03;78.75;99848.73;127129;1285;128465;-66
2024/02/04 14:40:18;;;;;;;3.00;1.10;;;;;;;9.95;79.12;99837.42;127299;1288;114765;-67
2024/02/04 14:43:53;;;;;;;;;;;;;;;;;;;;;
2024/02/04 14:51:39;;;;;;;1.70;0.50;;;;;;;9.72;79.43;99829.55;126053;1298;114928;-64
2024/02/04 14:59:47;;;;;;;;;;;;;;;;;;;;;
2024/02/04 15:03:02;;;;;;;5.00;3.20;;;;;;;9.48;79.04;99837.42;124617;1314;115043;-67
2024/02/04 15:06:04;;;;;;;1.80;0.70;;;;;;;9.42;79.17;99838.61;124962;1327;115009;-64
2024/02/04 15:09:04;;;;;;;1.40;0.80;;;;;;;9.36;79.19;99841.42;124865;1327;115317;-64
2024/02/04 15:12:43;;;;;;;2.80;1.30;;;;;;;9.28;79.01;99847.48;125030;1321;115035;-61
2024/02/04 15:15:54;;;;;;;3.70;0.90;;;;;;;9.21;78.96;99845.57;125423;1321;129735;-62
2024/02/04 15:18:55;;;;;;;1.60;1.20;;;;;;;9.14;79.08;99847.86;125593;1303;114828;-65
2024/02/04 15:22:05;;;;;;;2.00;0.60;;;;;;;9.09;79.12;99842.23;125862;1301;115416;-67
2024/02/04 15:25:07;;;;;;;2.20;0.90;;;;;;;9.03;78.93;99837.21;126210;1304;114950;-68
2024/02/04 15:28:26;;;;;;;2.30;1.10;;;;;;;8.98;79.01;99839.95;126355;1295;114904;-65
2024/02/04 15:31:30;;;;;;;2.50;1.30;;;;;;;8.93;78.86;99844.65;126285;1295;114894;-66
2024/02/04 15:34:40;;;;;;;3.80;1.50;;;;;;;8.89;79.00;99846.46;126424;1308;126600;-66
2024/02/04 15:37:46;;;;;;;2.50;1.10;;;;;;;8.84;78.87;99839.21;127846;1289;114824;-66
2024/02/04 15:40:49;;;;;;;2.90;1.00;;;;;;;8.79;78.86;99836.44;129645;1276;114817;-70
2024/02/04 15:43:55;;;;;;;3.70;1.10;;;;;;;8.75;78.83;99835.92;129953;1278;114802;-62
2024/02/04 15:47:26;;;;;;;2.20;0.90;;;;;;;8.72;78.84;99839.46;130061;1259;114715;-63
2024/02/04 15:50:39;;;;;;;1.50;1.20;;;;;;;8.69;78.96;99848.31;129462;1275;129047;-66
2024/02/04 15:53:42;;;;;;;1.40;0.70;;;;;;;8.67;78.85;99853.61;130146;1259;115087;-67
2024/02/04 15:56:52;;;;;;;2.20;1.60;;;;;;;8.65;78.96;99858.45;129858;1264;114838;-62
2024/02/04 16:00:00;;;;;;;3.30;1.30;;;;;;;8.63;78.77;99857.30;129670;1262;114763;-65
2024/02/04 16:16:24;;;;;;;5.50;2.00;;;;;;;8.62;78.88;99864.83;128812;1274;114805;-67
2024/02/04 16:19:42;;;;;;;2.90;1.30;;;;;;;8.62;78.70;99866.80;129070;1274;115642;-65
2024/02/04 16:23:29;;;;;;;2.80;1.40;;;;;;;8.61;78.64;99868.99;128905;1283;114922;-62
2024/02/04 16:28:05;;;;;;;;;;;;;;;8.58;78.50;99875.38;128920;1291;129239;-62
2024/02/04 16:36:28;;;;;;;3.90;1.30;;;;;;;8.48;78.01;99879.20;127769;1282;114935;-62
2024/02/04 16:40:40;;;;;;;3.30;1.40;;;;;;;8.43;77.79;99873.38;127745;1286;115037;-66
2024/02/04 16:53:33;;;;;;;;;;;;;;;;;;;;;
2024/02/04 17:01:16;;;;;;;;;;;;;;;;;;;;;
2024/02/04 17:09:52;;;;;;;2.20;1.20;;;;;;;8.13;77.38;99863.02;125817;1316;130783;-62
2024/02/04 17:13:41;;;;;;;2.70;1.40;;;;;;;8.11;77.10;99862.25;126035;1302;115084;-64
2024/02/04 17:26:42;;;;;;;5.70;2.30;;;;;;;8.09;76.25;99860.74;125753;1300;651313;-64
2024/02/04 17:30:19;;;;;;;2.90;1.60;;;;;;;8.06;76.41;99858.35;127545;1283;128076;-61
2024/02/04 17:33:50;;;;;;;2.20;1.00;;;;;;;8.05;76.20;99849.19;127781;1282;115267;-60
2024/02/04 17:37:44;;;;;;;4.40;2.00;;;;;;;8.03;76.28;99857.99;127428;1284;114887;-61
2024/02/04 17:45:37;;;;;;;7.80;2.20;;;;;;;7.99;76.16;99853.70;127720;1282;116101;-61
2024/02/04 17:49:31;;;;;;;;;;;;;;;;;;;;;
2024/02/04 17:53:36;;;;;;;7.00;2.40;;;;;;;7.93;76.35;99843.34;126829;1287;127852;-61
2024/02/04 17:57:37;;;;;;;2.50;1.50;;;;;;;7.89;76.23;99835.13;125430;1305;114862;-60
2024/02/04 18:01:39;;;;;;;4.50;1.70;;;;;;;7.88;76.37;99835.91;124587;1329;114975;-62
2024/02/04 18:05:43;;;;;;;5.20;2.40;;;;;;;7.87;76.64;99838.27;123596;1338;115144;-61
2024/02/04 18:14:14;;;;;;;5.10;1.50;;;;;;;7.87;76.48;99842.89;125790;1304;641082;-60
2024/02/04 18:22:21;;;;;;;3.80;1.20;;;;;;;7.84;76.09;99841.45;126821;1286;115012;-62
2024/02/04 18:26:15;;;;;;;4.20;1.80;;;;;;;7.84;76.15;99833.95;122149;1296;5409596;-61
2024/02/04 18:29:15;;;;;;;1.90;0.70;;;;;;;7.86;76.16;99830.69;126095;1291;114869;-61
2024/02/04 18:32:40;;;;;;;3.20;1.20;;;;;;;7.86;75.74;99825.16;126343;1297;114757;-61
2024/02/04 18:36:45;;;;;;;4.50;1.30;;;;;;;7.86;75.86;99821.40;126323;1296;114985;-62
2024/02/04 18:40:36;;;;;;;2.60;0.80;;;;;;;7.87;75.23;99818.89;125512;1312;130327;-61
2024/02/04 18:44:18;;;;;;;;;;;;;;;7.86;75.25;99808.06;125453;1302;114935;-60
2024/02/04 18:52:20;;;;;;;3.40;1.30;;;;;;;7.87;74.89;99824.41;124664;1320;115000;-62
2024/02/04 18:56:21;;;;;;;3.10;1.60;;;;;;;7.87;74.81;99816.38;125050;1324;114999;-65
2024/02/04 19:00:15;;;;;;;;;;;;;;;;;;;;;
2024/02/04 19:03:48;;;;;;;3.10;1.20;;;;;;;7.89;74.45;99816.13;125225;1308;114973;-64
2024/02/04 19:07:48;;;;;;;4.20;1.40;;;;;;;7.86;74.70;99815.02;125262;1325;115280;-66
2024/02/04 19:11:47;;;;;;;2.50;1.10;;;;;;;7.83;74.46;99808.40;125398;1318;114954;-67
2024/02/04 19:15:48;;;;;;;2.50;1.20;;;;;;;7.80;74.62;99816.19;125249;1326;114977;-66
2024/02/04 19:23:51;;;;;;;1.80;0.60;;;;;;;7.79;74.52;99823.90;126588;1299;635923;-68
2024/02/04 19:31:45;;;;;;;;;;;;;;;;;;;;;
2024/02/04 19:35:57;;;;;;;3.40;1.00;;;;;;;7.74;74.60;99829.43;128208;1288;114879;-65
2024/02/04 19:43:53;;;;;;;2.20;1.10;;;;;;;7.73;74.48;99831.42;126320;1300;115018;-66
2024/02/04 19:47:53;;;;;;;2.80;0.80;;;;;;;7.74;74.69;99836.55;125087;1327;114909;-64
2024/02/04 19:51:53;;;;;;;;;;;;;;;;;;;;;
2024/02/04 19:55:55;;;;;;;2.60;1.10;;;;;;;7.75;74.90;99823.33;124264;1311;115012;-66
2024/02/04 19:59:56;;;;;;;;;;;;;;;;;;;;;
2024/02/04 20:12:50;;;;;;;2.80;1.00;;;;;;;7.69;74.50;99824.14;127982;1283;127800;-65
2024/02/04 20:20:45;;;;;;;2.20;0.80;;;;;;;7.65;74.53;99827.55;122340;1296;5454189;-67
2024/02/04 20:33:14;;;;;;;2.30;1.10;;;;;;;7.68;74.82;99813.34;126124;1299;636922;-66
2024/02/04 20:41:22;;;;;;;1.60;0.80;;;;;;;7.70;75.31;99813.63;129563;1269;114902;-66
2024/02/04 20:45:15;;;;;;;2.00;0.70;;;;;;;7.67;75.13;99814.81;124910;1280;5424444;-66
2024/02/04 20:49:21;;;;;;;2.50;0.80;;;;;;;7.64;75.22;99813.20;127933;1287;114837;-66
2024/02/04 20:53:22;;;;;;;;;;;;;;;;;;;;;
2024/02/04 20:57:23;;;;;;;2.90;1.00;;;;;;;7.58;75.60;99812.91;126310;1297;129884;-64
2024/02/04 21:01:11;;;;;;;4.40;1.00;;;;;;;7.54;75.80;99814.32;125770;1307;114975;-64
2024/02/04 21:04:53;;;;;;;;;;;;;;;7.49;75.76;99815.83;125351;1306;115618;-68
2024/02/04 21:08:54;;;;;;;1.90;1.00;;;;;;;7.44;76.42;99821.52;125365;1310;114946;-65
2024/02/04 21:12:58;;;;;;;1.80;1.00;;;;;;;7.38;76.82;99815.38;125238;1304;115020;-69
2024/02/04 21:21:05;;;;;;;;;;;;;;;;;;;;;
2024/02/04 21:25:06;;;;;;;2.30;0.70;;;;;;;7.18;77.76;99809.34;128469;1281;127596;-66
2024/02/04 21:29:08;;;;;;;2.60;0.90;;;;;;;7.12;77.69;99810.29;127952;1295;114854;-67
2024/02/04 21:33:12;;;;;;;1.60;0.90;;;;;;;7.07;77.91;99811.39;122828;1295;5430792;-67
2024/02/04 21:37:15;;;;;;;2.20;1.20;;;;;;;7.02;78.28;99804.71;125290;1325;114825;-65
2024/02/04 21:41:15;;;;;;;2.60;0.80;;;;;;;6.97;78.60;99799.56;124261;1316;114942;-67
2024/02/04 21:49:54;;;;;;;2.80;1.30;;;;;;;6.94;79.09;99787.45;125336;1312;638711;-65
2024/02/04 21:53:57;;;;;;;2.00;0.70;;;;;;;6.88;79.33;99783.44;127823;1286;127933;-66
2024/02/04 22:02:34;;;;;;;1.50;0.70;;;;;;;6.84;79.90;99779.00;125629;1319;639160;-68
2024/02/04 22:06:36;;;;;;;1.20;0.60;;;;;;;6.80;80.13;99785.92;128235;1281;127599;-67
2024/02/04 22:10:37;;;;;;;1.90;0.80;;;;;;;6.75;80.66;99779.73;127388;1289;115348;-66
2024/02/04 22:14:39;;;;;;;;;;;;;;;;;;;;;
2024/02/04 22:22:43;;;;;;;1.90;0.80;;;;;;;6.61;81.41;99762.92;125158;1307;114882;-66
2024/02/04 22:26:44;;;;;;;1.40;0.70;;;;;;;6.57;81.64;99774.80;124181;1319;130072;-65
2024/02/04 22:35:08;;;;;;;2.20;0.90;;;;;;;6.52;82.10;99763.63;126415;1294;635865;-65
2024/02/04 22:39:10;;;;;;;2.20;1.20;;;;;;;6.49;82.11;99766.98;128234;1284;127829;-68
2024/02/04 22:47:16;;;;;;;1.30;0.50;;;;;;;6.45;82.59;99762.52;122063;1314;5476905;-67
2024/02/04 22:51:17;;;;;;;2.90;0.70;;;;;;;6.46;82.80;99756.98;124858;1307;114860;-67
2024/02/04 22:55:17;;;;;;;;;;;;;;;;;;;;;
2024/02/04 23:03:41;;;;;;;1.40;0.70;;;;;;;6.49;83.27;99744.64;126579;1295;636095;-63
2024/02/04 23:07:44;;;;;;;;;;;;;;;;;;;;;
2024/02/04 23:15:51;;;;;;;1.20;0.40;;;;;;;6.48;83.97;99743.44;123547;1286;5439026;-67
2024/02/04 23:19:52;;;;;;;1.60;1.20;;;;;;;6.46;84.15;99737.27;126307;1298;114829;-68
2024/02/04 23:23:53;;;;;;;1.70;0.80;;;;;;;6.47;84.12;99732.48;125771;1307;114988;-65
2024/02/04 23:27:54;;;;;;;0.90;0.60;;;;;;;6.46;84.65;99726.66;125284;1307;114993;-66
2024/02/04 23:40:32;;;;;;;1.60;0.80;;;;;;;6.46;85.18;99709.27;127900;1284;128778;-66
2024/02/04 23:44:35;;;;;;;1.50;1.10;;;;;;;6.45;85.63;99708.79;127809;1284;115004;-67
2024/02/04 23:48:31;;;;;;;;;;;;;;;;;;;;;
2024/02/04 23:52:33;;;;;;;1.50;0.70;;;;;;;6.46;85.82;99693.86;125201;1304;114883;-65
